createdAt,value
2023-05-19T00:00:12.081Z,38.38
2023-05-19T00:02:45.438Z,38.85
2023-05-19T00:05:20.160Z,40.60
2023-05-19T00:07:54.078Z,37.88
2023-05-19T00:10:24.350Z,38.40
2023-05-19T00:12:54.296Z,36.70
2023-05-19T00:15:24.780Z,38.90
2023-05-19T00:17:56.854Z,38.85
2023-05-19T00:20:27.064Z,39.00
2023-05-19T00:22:56.997Z,39.42
2023-05-19T00:25:27.364Z,43.15
2023-05-19T00:27:57.246Z,37.30
2023-05-19T00:30:27.449Z,37.83
2023-05-19T00:32:57.899Z,36.58
2023-05-19T00:35:28.093Z,38.63
2023-05-19T00:37:57.818Z,38.03
2023-05-19T00:40:31.795Z,38.50
2023-05-19T00:43:02.441Z,35.60
2023-05-19T00:45:32.499Z,37.97
2023-05-19T00:48:02.875Z,37.42
2023-05-19T00:50:33.504Z,37.65
2023-05-19T00:53:04.080Z,36.53
2023-05-19T00:55:35.401Z,37.85
2023-05-19T00:58:07.622Z,37.72
2023-05-19T01:00:38.582Z,37.35
2023-05-19T01:03:12.735Z,36.08
2023-05-19T01:05:46.289Z,36.97
2023-05-19T01:08:16.495Z,38.17
2023-05-19T01:10:46.306Z,38.05
2023-05-19T01:13:16.478Z,36.80
2023-05-19T01:16:03.383Z,37.55
2023-05-19T01:19:12.567Z,36.55
2023-05-19T01:22:24.397Z,36.33
2023-05-19T01:25:22.961Z,37.38
2023-05-19T01:28:28.647Z,37.50
2023-05-19T01:31:01.420Z,37.25
2023-05-19T01:33:33.031Z,37.45
2023-05-19T01:36:05.848Z,36.05
2023-05-19T01:38:37.296Z,37.38
2023-05-19T01:41:08.717Z,36.67
2023-05-19T01:43:39.157Z,35.53
2023-05-19T01:46:10.018Z,34.85
2023-05-19T01:48:40.394Z,34.95
2023-05-19T01:51:10.208Z,35.72
2023-05-19T01:53:40.470Z,39.88
2023-05-19T01:56:10.521Z,31.88
2023-05-19T01:58:48.741Z,31.50
2023-05-19T02:01:41.655Z,33.72
2023-05-19T02:04:41.349Z,34.92
2023-05-19T02:07:50.654Z,34.60
2023-05-19T02:10:34.134Z,35.75
2023-05-19T02:13:08.330Z,34.25
2023-05-19T02:15:46.618Z,34.05
2023-05-19T02:18:19.546Z,33.83
2023-05-19T02:20:53.600Z,34.75
2023-05-19T02:23:23.754Z,32.53
2023-05-19T02:25:53.685Z,34.15
2023-05-19T02:28:23.691Z,33.70
2023-05-19T02:30:53.522Z,34.45
2023-05-19T02:33:27.542Z,34.13
2023-05-19T02:35:58.282Z,34.67
2023-05-19T02:38:28.560Z,33.05
2023-05-19T02:40:58.597Z,33.22
2023-05-19T02:43:28.685Z,32.38
2023-05-19T02:45:58.541Z,32.45
2023-05-19T02:48:29.410Z,32.85
2023-05-19T02:51:02.091Z,32.58
2023-05-19T02:53:34.036Z,32.72
2023-05-19T02:56:04.209Z,33.58
2023-05-19T02:58:34.015Z,32.67
2023-05-19T03:01:04.196Z,32.33
2023-05-19T03:03:34.446Z,31.90
2023-05-19T03:06:04.688Z,32.28
2023-05-19T03:08:34.444Z,31.88
2023-05-19T03:11:05.282Z,32.05
2023-05-19T03:13:35.393Z,31.83
2023-05-19T03:16:05.300Z,32.55
2023-05-19T03:18:35.814Z,33.08
2023-05-19T03:21:05.747Z,33.75
2023-05-19T03:23:35.708Z,33.90
2023-05-19T03:26:06.937Z,33.97
2023-05-19T03:28:37.326Z,34.42
2023-05-19T03:31:07.537Z,32.13
2023-05-19T03:33:41.084Z,34.65
2023-05-19T03:36:11.558Z,32.58
2023-05-19T03:38:43.025Z,33.88
2023-05-19T03:41:13.217Z,33.20
2023-05-19T03:43:43.060Z,35.85
2023-05-19T03:46:13.058Z,33.58
2023-05-19T03:49:02.456Z,32.95
2023-05-19T03:51:52.554Z,35.22
2023-05-19T03:54:36.601Z,32.53
2023-05-19T03:57:07.222Z,32.72
2023-05-19T03:59:38.780Z,34.50
2023-05-19T04:02:09.316Z,33.28
2023-05-19T04:04:39.566Z,33.60
2023-05-19T04:07:09.608Z,33.08
2023-05-19T04:09:39.583Z,34.42
2023-05-19T04:12:10.119Z,33.15
2023-05-19T04:14:40.032Z,32.67
2023-05-19T04:17:09.990Z,32.33
2023-05-19T04:19:40.186Z,32.03
2023-05-19T04:22:09.990Z,31.35
2023-05-19T04:24:40.076Z,30.95
2023-05-19T04:27:13.461Z,31.23
2023-05-19T04:29:43.649Z,31.23
2023-05-19T04:32:13.518Z,31.88
2023-05-19T04:34:46.695Z,32.95
2023-05-19T04:37:23.328Z,31.02
2023-05-19T04:39:53.752Z,31.73
2023-05-19T04:42:27.651Z,30.48
2023-05-19T04:44:58.092Z,30.33
2023-05-19T04:47:31.500Z,30.20
2023-05-19T04:50:02.374Z,29.48
2023-05-19T04:52:32.816Z,29.10
2023-05-19T04:55:04.446Z,30.42
2023-05-19T04:57:34.724Z,30.35
2023-05-19T05:00:06.630Z,34.20
2023-05-19T05:02:44.380Z,30.17
2023-05-19T05:05:16.028Z,30.15
2023-05-19T05:07:46.061Z,30.27
2023-05-19T05:10:16.021Z,31.67
2023-05-19T05:12:46.321Z,30.80
2023-05-19T05:15:16.608Z,30.20
2023-05-19T05:17:49.366Z,31.30
2023-05-19T05:20:21.107Z,30.90
2023-05-19T05:22:51.512Z,30.73
2023-05-19T05:25:22.571Z,30.00
2023-05-19T05:27:54.062Z,29.02
2023-05-19T05:30:24.098Z,29.52
2023-05-19T05:32:54.267Z,28.27
2023-05-19T05:35:35.093Z,28.98
2023-05-19T05:38:06.883Z,28.88
2023-05-19T05:40:38.686Z,27.60
2023-05-19T05:43:10.718Z,27.67
2023-05-19T05:45:47.871Z,27.48
2023-05-19T05:48:18.619Z,29.10
2023-05-19T05:50:50.469Z,28.52
2023-05-19T05:53:26.602Z,28.08
2023-05-19T05:55:58.180Z,28.65
2023-05-19T05:58:37.376Z,28.67
2023-05-19T06:01:11.912Z,28.40
2023-05-19T06:03:45.737Z,27.90
2023-05-19T06:06:21.095Z,27.73
2023-05-19T06:08:51.236Z,25.88
2023-05-19T06:11:21.285Z,26.42
2023-05-19T06:13:53.552Z,26.08
2023-05-19T06:16:43.390Z,27.45
2023-05-19T06:19:14.019Z,26.95
2023-05-19T06:21:45.439Z,24.50
2023-05-19T06:24:15.944Z,24.55
2023-05-19T06:26:46.038Z,24.30
2023-05-19T06:29:16.231Z,24.77
2023-05-19T06:31:46.590Z,25.00
2023-05-19T06:34:19.292Z,24.90
2023-05-19T06:36:50.346Z,25.70
2023-05-19T06:39:22.181Z,24.80
2023-05-19T06:41:53.433Z,24.63
2023-05-19T06:44:42.944Z,24.02
2023-05-19T06:47:14.877Z,24.63
2023-05-19T06:49:45.302Z,24.38
2023-05-19T06:52:19.161Z,24.38
2023-05-19T06:54:50.409Z,23.80
2023-05-19T06:57:20.754Z,23.92
2023-05-19T06:59:50.790Z,23.80
2023-05-19T07:02:21.492Z,23.02
2023-05-19T07:04:53.132Z,25.48
2023-05-19T07:07:24.480Z,23.77
2023-05-19T07:09:54.523Z,30.02
2023-05-19T07:12:24.480Z,32.05
2023-05-19T07:14:55.488Z,23.63
2023-05-19T07:17:26.814Z,23.23
2023-05-19T07:19:57.178Z,22.95
2023-05-19T07:22:32.535Z,23.23
2023-05-19T07:25:02.958Z,21.60
2023-05-19T07:27:33.117Z,21.75
2023-05-19T07:30:03.319Z,21.73
2023-05-19T07:32:33.043Z,21.48
2023-05-19T07:35:02.996Z,21.67
2023-05-19T07:37:32.865Z,21.17
2023-05-19T07:40:03.045Z,21.77
2023-05-19T07:42:32.882Z,22.23
2023-05-19T07:45:04.681Z,22.73
2023-05-19T07:47:35.001Z,22.23
2023-05-19T07:50:05.220Z,23.30
2023-05-19T07:52:35.209Z,23.15
2023-05-19T07:55:05.063Z,21.95
2023-05-19T07:57:35.203Z,21.98
2023-05-19T08:00:09.136Z,23.55
2023-05-19T08:02:41.446Z,23.10
2023-05-19T08:05:13.082Z,22.50
2023-05-19T08:07:43.174Z,22.77
2023-05-19T08:10:12.990Z,24.40
2023-05-19T08:12:43.049Z,22.58
2023-05-19T08:15:13.342Z,21.90
2023-05-19T08:17:43.337Z,23.30
2023-05-19T08:20:16.456Z,23.92
2023-05-19T08:22:46.449Z,23.80
2023-05-19T08:25:16.444Z,24.35
2023-05-19T08:27:46.193Z,23.38
2023-05-19T08:30:16.100Z,23.50
2023-05-19T08:32:46.329Z,22.75
2023-05-19T08:35:16.333Z,23.90
2023-05-19T08:37:46.342Z,23.58
2023-05-19T08:40:20.138Z,23.48
2023-05-19T08:42:50.335Z,24.42
2023-05-19T08:45:27.763Z,25.05
2023-05-19T08:47:58.861Z,23.67
2023-05-19T08:50:41.220Z,24.77
2023-05-19T08:53:34.530Z,23.98
2023-05-19T08:56:13.242Z,24.17
2023-05-19T08:58:45.500Z,24.98
2023-05-19T09:01:18.378Z,23.13
2023-05-19T09:03:51.116Z,25.15
2023-05-19T09:06:21.171Z,23.90
2023-05-19T09:08:51.049Z,23.92
2023-05-19T09:11:21.137Z,24.25
2023-05-19T09:13:51.288Z,23.08
2023-05-19T09:16:21.531Z,26.73
2023-05-19T09:18:59.187Z,34.47
2023-05-19T09:21:35.504Z,38.55
2023-05-19T09:24:09.976Z,40.22
2023-05-19T09:26:44.559Z,22.50
2023-05-19T09:29:21.117Z,23.13
2023-05-19T09:32:07.726Z,24.05
2023-05-19T09:34:43.174Z,23.77
2023-05-19T09:37:15.596Z,24.85
2023-05-19T09:39:50.781Z,23.50
2023-05-19T09:42:31.310Z,24.45
2023-05-19T09:45:08.373Z,26.50
2023-05-19T09:47:43.635Z,27.80
2023-05-19T09:50:15.762Z,26.75
2023-05-19T09:52:46.706Z,26.92
2023-05-19T09:55:17.177Z,26.27
2023-05-19T09:57:47.763Z,27.67
2023-05-19T10:00:19.588Z,26.60
2023-05-19T10:02:51.848Z,26.98
2023-05-19T10:05:23.131Z,25.42
2023-05-19T10:07:55.927Z,27.02
2023-05-19T10:10:26.268Z,28.70
2023-05-19T10:12:57.029Z,31.33
2023-05-19T10:15:28.434Z,29.75
2023-05-19T10:17:59.053Z,29.80
2023-05-19T10:20:30.129Z,30.63
2023-05-19T10:23:00.210Z,31.40
2023-05-19T10:25:30.391Z,29.85
2023-05-19T10:28:13.368Z,29.27
2023-05-19T10:30:52.770Z,29.48
2023-05-19T10:33:24.656Z,28.42
2023-05-19T10:36:35.645Z,28.83
2023-05-19T10:39:15.313Z,31.80
2023-05-19T10:42:05.459Z,31.25
2023-05-19T10:44:55.987Z,32.92
2023-05-19T10:47:31.199Z,29.55
2023-05-19T10:50:03.065Z,29.30
2023-05-19T10:52:34.508Z,31.27
2023-05-19T10:55:06.301Z,31.45
2023-05-19T10:57:37.123Z,32.03
2023-05-19T11:00:30.741Z,35.92
2023-05-19T11:03:25.099Z,41.00
2023-05-19T11:05:55.330Z,34.40
2023-05-19T11:08:37.955Z,33.42
2023-05-19T11:11:18.591Z,32.55
2023-05-19T11:13:58.422Z,33.47
2023-05-19T11:16:33.810Z,33.17
2023-05-19T11:19:04.038Z,33.65
2023-05-19T11:21:56.340Z,34.60
2023-05-19T11:24:47.757Z,34.53
2023-05-19T11:27:35.426Z,41.55
2023-05-19T11:30:20.309Z,39.25
2023-05-19T11:32:50.665Z,38.22
2023-05-19T11:35:22.931Z,38.35
2023-05-19T11:37:55.780Z,38.83
2023-05-19T11:40:25.892Z,39.38
2023-05-19T11:42:55.855Z,39.17
2023-05-19T11:45:31.360Z,40.30
2023-05-19T11:48:04.441Z,43.97
2023-05-19T11:50:35.408Z,40.85
2023-05-19T11:53:05.662Z,43.90
2023-05-19T11:55:36.563Z,47.03
2023-05-19T11:58:06.925Z,52.97
2023-05-19T12:00:45.091Z,51.35
2023-05-19T12:03:15.728Z,45.88
2023-05-19T12:05:48.004Z,45.53
2023-05-19T12:08:23.157Z,50.83
2023-05-19T12:10:55.711Z,50.75
2023-05-19T12:13:25.983Z,51.35
2023-05-19T12:15:59.534Z,49.85
2023-05-19T12:18:33.425Z,46.03
2023-05-19T12:21:03.691Z,45.75
2023-05-19T12:23:34.279Z,48.50
2023-05-19T12:26:04.699Z,45.47
2023-05-19T12:28:34.763Z,47.47
2023-05-19T12:31:05.070Z,47.92
2023-05-19T12:33:36.356Z,48.17
2023-05-19T12:36:07.822Z,47.70
2023-05-19T12:38:41.124Z,48.35
2023-05-19T12:41:15.336Z,50.13
2023-05-19T12:43:45.846Z,72.25
2023-05-19T12:46:18.131Z,52.50
2023-05-19T12:48:49.731Z,52.55
2023-05-19T12:51:21.102Z,50.83
2023-05-19T12:53:53.366Z,48.63
2023-05-19T12:56:23.715Z,49.58
2023-05-19T12:58:57.202Z,50.35
2023-05-19T13:01:27.558Z,49.22
2023-05-19T13:03:59.688Z,53.60
2023-05-19T13:06:30.021Z,54.28
2023-05-19T13:09:00.051Z,53.60
2023-05-19T13:11:30.723Z,54.03
2023-05-19T13:14:00.664Z,54.83
2023-05-19T13:16:30.966Z,51.35
2023-05-19T13:19:01.497Z,52.28
2023-05-19T13:21:31.612Z,52.05
2023-05-19T13:24:01.843Z,49.53
2023-05-19T13:26:32.035Z,48.42
2023-05-19T13:29:02.810Z,46.92
2023-05-19T13:31:32.943Z,46.13
2023-05-19T13:34:03.429Z,47.13
2023-05-19T13:36:34.801Z,45.97
2023-05-19T13:39:05.061Z,45.42
2023-05-19T13:41:35.260Z,47.15
2023-05-19T13:44:05.451Z,46.42
2023-05-19T13:46:44.845Z,44.22
2023-05-19T13:49:16.007Z,45.78
2023-05-19T13:51:46.055Z,46.35
2023-05-19T13:54:16.126Z,45.88
2023-05-19T13:56:48.623Z,46.28
2023-05-19T13:59:24.874Z,45.08
2023-05-19T14:01:55.155Z,43.28
2023-05-19T14:04:28.309Z,42.22
2023-05-19T14:06:58.720Z,38.38
2023-05-19T14:09:29.886Z,40.30
2023-05-19T14:12:00.550Z,39.10
2023-05-19T14:14:30.487Z,38.72
2023-05-19T14:17:00.841Z,38.88
2023-05-19T14:19:31.679Z,39.42
2023-05-19T14:22:01.841Z,36.38
2023-05-19T14:24:32.096Z,37.17
2023-05-19T14:27:02.217Z,35.17
2023-05-19T14:29:32.752Z,36.53
2023-05-19T14:32:04.289Z,35.20
2023-05-19T14:34:34.512Z,37.17
2023-05-19T14:37:04.393Z,35.80
2023-05-19T14:39:34.388Z,38.10
2023-05-19T14:42:04.149Z,39.78
2023-05-19T14:44:34.718Z,37.78
2023-05-19T14:47:05.737Z,38.05
2023-05-19T14:49:35.970Z,34.72
2023-05-19T14:52:06.140Z,34.72
2023-05-19T14:54:36.283Z,34.67
2023-05-19T14:57:06.188Z,35.03
2023-05-19T14:59:39.659Z,33.17
2023-05-19T15:02:09.715Z,33.90
2023-05-19T15:04:39.550Z,34.92
2023-05-19T15:07:10.724Z,34.03
2023-05-19T15:09:41.202Z,35.08
2023-05-19T15:12:11.058Z,35.35
2023-05-19T15:14:41.161Z,39.72
2023-05-19T15:17:11.134Z,118.43
2023-05-19T15:19:43.462Z,35.85
2023-05-19T15:22:13.673Z,34.17
2023-05-19T15:24:43.414Z,32.58
2023-05-19T15:27:13.523Z,33.78
2023-05-19T15:29:43.411Z,34.90
2023-05-19T15:32:13.602Z,36.30
2023-05-19T15:34:44.722Z,36.45
2023-05-19T15:37:14.852Z,34.75
2023-05-19T15:39:44.633Z,37.83
2023-05-19T15:42:14.586Z,33.65
2023-05-19T15:44:47.306Z,34.42
2023-05-19T15:47:18.164Z,35.22
2023-05-19T15:49:48.132Z,37.08
2023-05-19T15:52:18.178Z,34.60
2023-05-19T15:54:50.191Z,36.28
2023-05-19T15:57:23.000Z,35.47
2023-05-19T15:59:53.058Z,35.67
2023-05-19T16:02:26.716Z,37.10
2023-05-19T16:04:59.756Z,36.17
2023-05-19T16:07:29.856Z,34.65
2023-05-19T16:09:59.927Z,34.10
2023-05-19T16:12:31.586Z,33.90
2023-05-19T16:15:01.573Z,34.13
2023-05-19T16:17:31.469Z,35.65
2023-05-19T16:20:01.456Z,34.53
2023-05-19T16:22:32.115Z,36.30
2023-05-19T16:25:02.443Z,36.00
2023-05-19T16:27:32.184Z,35.55
2023-05-19T16:30:02.702Z,36.00
2023-05-19T16:32:32.456Z,39.03
2023-05-19T16:35:02.645Z,33.53
2023-05-19T16:37:32.529Z,36.45
2023-05-19T16:40:02.638Z,35.78
2023-05-19T16:42:33.526Z,37.15
2023-05-19T16:45:04.023Z,36.15
2023-05-19T16:47:34.765Z,35.55
2023-05-19T16:50:05.047Z,38.30
2023-05-19T16:52:35.361Z,37.75
2023-05-19T16:55:05.705Z,36.97
2023-05-19T16:57:35.803Z,37.50
2023-05-19T17:00:06.064Z,36.22
2023-05-19T17:02:36.400Z,37.38
2023-05-19T17:05:06.645Z,36.72
2023-05-19T17:07:36.829Z,38.47
2023-05-19T17:10:07.130Z,36.83
2023-05-19T17:12:37.948Z,36.67
2023-05-19T17:15:08.440Z,35.53
2023-05-19T17:17:38.750Z,36.63
2023-05-19T17:20:09.415Z,37.30
2023-05-19T17:22:39.652Z,36.45
2023-05-19T17:25:10.270Z,37.70
2023-05-19T17:27:40.728Z,37.38
2023-05-19T17:30:11.147Z,36.33
2023-05-19T17:32:41.176Z,35.88
2023-05-19T17:35:11.312Z,36.97
2023-05-19T17:37:41.990Z,35.20
2023-05-19T17:40:12.735Z,34.65
2023-05-19T17:42:42.651Z,36.67
2023-05-19T17:45:14.001Z,34.85
2023-05-19T17:47:49.515Z,37.08
2023-05-19T17:50:19.768Z,36.88
2023-05-19T17:52:50.353Z,34.72
2023-05-19T17:55:20.975Z,35.45
2023-05-19T17:57:51.412Z,37.65
2023-05-19T18:00:22.099Z,36.05
2023-05-19T18:02:52.823Z,37.55
2023-05-19T18:05:26.231Z,36.53
2023-05-19T18:07:59.965Z,36.78
2023-05-19T18:10:30.238Z,35.58
2023-05-19T18:13:00.130Z,35.33
2023-05-19T18:15:30.288Z,37.38
2023-05-19T18:18:00.252Z,40.08
2023-05-19T18:20:32.550Z,36.95
2023-05-19T18:23:03.637Z,37.65
2023-05-19T18:25:33.476Z,38.15
2023-05-19T18:28:03.420Z,38.22
2023-05-19T18:30:33.431Z,40.05
2023-05-19T18:33:05.047Z,39.70
2023-05-19T18:35:36.489Z,38.92
2023-05-19T18:38:06.681Z,39.50
2023-05-19T18:40:36.591Z,39.75
2023-05-19T18:43:06.854Z,38.40
2023-05-19T18:45:38.207Z,39.60
2023-05-19T18:48:09.612Z,38.28
2023-05-19T18:50:39.669Z,37.50
2023-05-19T18:53:09.462Z,40.33
2023-05-19T18:55:39.665Z,38.22
2023-05-19T18:58:09.426Z,39.13
2023-05-19T19:00:39.564Z,39.08
2023-05-19T19:03:11.840Z,39.03
2023-05-19T19:05:42.315Z,38.58
2023-05-19T19:08:12.414Z,38.95
2023-05-19T19:10:42.388Z,38.15
2023-05-19T19:13:12.197Z,38.28
2023-05-19T19:15:42.429Z,39.40
2023-05-19T19:18:12.911Z,39.40
2023-05-19T19:20:43.108Z,39.47
2023-05-19T19:23:12.888Z,40.75
2023-05-19T19:25:43.054Z,40.65
2023-05-19T19:28:13.289Z,39.60
2023-05-19T19:30:43.502Z,39.58
2023-05-19T19:33:13.387Z,40.17
2023-05-19T19:35:43.478Z,38.55
2023-05-19T19:38:13.325Z,40.60
2023-05-19T19:40:43.521Z,39.53
2023-05-19T19:43:13.560Z,39.97
2023-05-19T19:45:43.739Z,40.17
2023-05-19T19:48:16.957Z,38.97
2023-05-19T19:50:46.992Z,40.60
2023-05-19T19:53:17.433Z,40.85
2023-05-19T19:55:47.918Z,41.78
2023-05-19T19:58:17.699Z,41.72
2023-05-19T20:00:47.757Z,42.00
2023-05-19T20:03:17.759Z,41.75
2023-05-19T20:05:48.259Z,42.40
2023-05-19T20:08:18.181Z,43.17
2023-05-19T20:10:52.088Z,42.38
2023-05-19T20:13:22.339Z,39.85
2023-05-19T20:15:52.625Z,43.05
2023-05-19T20:18:23.418Z,42.83
2023-05-19T20:20:53.456Z,41.65
2023-05-19T20:23:23.350Z,40.85
2023-05-19T20:26:09.927Z,40.80
2023-05-19T20:28:41.716Z,42.42
2023-05-19T20:31:11.889Z,41.95
2023-05-19T20:33:42.085Z,43.85
2023-05-19T20:36:12.640Z,43.72
2023-05-19T20:38:42.648Z,43.20
2023-05-19T20:41:12.569Z,42.55
2023-05-19T20:43:42.926Z,42.25
2023-05-19T20:46:13.469Z,41.80
2023-05-19T20:48:43.750Z,42.58
2023-05-19T20:51:13.903Z,41.50
2023-05-19T20:53:43.930Z,42.33
2023-05-19T20:56:14.615Z,41.13
2023-05-19T20:58:44.511Z,43.05
2023-05-19T21:01:14.761Z,43.15
2023-05-19T21:03:44.550Z,42.30
2023-05-19T21:06:14.742Z,43.08
2023-05-19T21:08:44.628Z,43.33
2023-05-19T21:11:14.948Z,44.28
2023-05-19T21:13:44.833Z,42.50
2023-05-19T21:16:14.862Z,42.88
2023-05-19T21:18:44.688Z,43.00
2023-05-19T21:21:14.990Z,46.08
2023-05-19T21:23:44.827Z,44.00
2023-05-19T21:26:14.868Z,45.20
2023-05-19T21:28:44.771Z,45.58
2023-05-19T21:31:15.438Z,45.47
2023-05-19T21:33:45.470Z,46.00
2023-05-19T21:36:15.516Z,46.10
2023-05-19T21:38:45.497Z,43.67
2023-05-19T21:41:16.027Z,44.45
2023-05-19T21:43:47.223Z,46.10
2023-05-19T21:46:17.788Z,45.35
2023-05-19T21:48:48.268Z,46.30
2023-05-19T21:51:18.430Z,45.40
2023-05-19T21:53:48.299Z,46.53
2023-05-19T21:56:18.615Z,45.13
2023-05-19T21:58:48.558Z,49.55
2023-05-19T22:01:18.984Z,48.70
2023-05-19T22:03:49.400Z,48.85
2023-05-19T22:06:19.345Z,48.53
2023-05-19T22:08:49.434Z,46.58
2023-05-19T22:11:19.534Z,47.65
2023-05-19T22:13:49.848Z,48.22
2023-05-19T22:16:19.799Z,46.67
2023-05-19T22:18:49.872Z,47.20
2023-05-19T22:21:19.875Z,48.75
2023-05-19T22:23:50.111Z,50.47
2023-05-19T22:26:20.041Z,50.90
2023-05-19T22:28:51.913Z,50.85
2023-05-19T22:31:22.286Z,50.58
2023-05-19T22:33:53.076Z,51.05
2023-05-19T22:36:23.294Z,52.83
2023-05-19T22:38:53.103Z,50.53
2023-05-19T22:41:23.226Z,48.92
2023-05-19T22:43:53.098Z,49.83
2023-05-19T22:46:23.524Z,48.28
2023-05-19T22:48:53.884Z,50.25
2023-05-19T22:51:24.247Z,49.53
2023-05-19T22:53:54.027Z,50.17
2023-05-19T22:56:24.131Z,50.38
2023-05-19T22:58:53.911Z,48.75
2023-05-19T23:01:24.256Z,48.88
2023-05-19T23:03:54.124Z,48.33
2023-05-19T23:06:24.445Z,46.30
2023-05-19T23:09:04.988Z,47.00
2023-05-19T23:11:36.291Z,47.33
2023-05-19T23:14:06.532Z,46.53
2023-05-19T23:16:39.106Z,45.33
2023-05-19T23:19:09.141Z,46.58
2023-05-19T23:21:39.008Z,48.42
2023-05-19T23:24:11.351Z,47.38
2023-05-19T23:26:41.344Z,45.58
2023-05-19T23:29:14.581Z,47.03
2023-05-19T23:31:45.810Z,47.60
2023-05-19T23:34:15.867Z,46.80
2023-05-19T23:36:45.763Z,46.08
2023-05-19T23:39:15.863Z,49.20
2023-05-19T23:41:45.632Z,45.15
2023-05-19T23:44:15.647Z,44.95
2023-05-19T23:46:45.707Z,44.03
2023-05-19T23:49:16.729Z,44.65
2023-05-19T23:51:46.604Z,45.00
2023-05-19T23:54:16.623Z,44.72
2023-05-19T23:56:46.492Z,44.65
2023-05-19T23:59:16.671Z,46.25
